Al Cenac — WDD5445 — position and weather

sailwx.info

Track history (hours):
 
Tides and Currents Weather Stations Pressure Air Temp Water Temp Dewpoint Dewpoint Depression Visibility Wind Speed Wind Dir Waves Ship Positions

Al Cenac

Owner: Caillou Island Towing Co, Inc., Houma, LA. More information available from US FCC via Universal Licensing System and Coast Guard Vessel Documentation Center.

Last reported at 2017-May-26 16:30 UTC. Time now 2017-May-26 16:55 UTC.
Position N 40°38' W 074°08'.

; draft 10 m.

Type: Tug. MMSI: 367158530.

Date/timePositionNaut miles runAvg speedWind from/ knotsBaromVisibWave heightAir tempDewpointWater temp
2017-May-26 16:30N 40°38' W 074°08'0 0.0
2017-May-26 16:00N 40°38' W 074°08'0 0.0
2017-May-26 15:30N 40°38' W 074°08'0 0.0
2017-May-26 15:00N 40°38' W 074°08'0 0.0
2017-May-26 14:30N 40°38' W 074°08'0 0.0
2017-May-26 13:30N 40°38' W 074°08'0 0.0
2017-May-26 13:00N 40°38' W 074°08'0 0.0
2017-May-26 12:30N 40°38' W 074°08'0 0.0
2017-May-26 12:00N 40°38' W 074°08'0 0.0
2017-May-26 11:30N 40°38' W 074°08'0 0.0
2017-May-26 11:00N 40°38' W 074°08'0 0.0
2017-May-26 10:30N 40°38' W 074°08'2 3.9
2017-May-26 10:00N 40°39' W 074°11'2 3.4
2017-May-26 09:27N 40°38' W 074°12'0 0.1
2017-May-26 09:00N 40°38' W 074°12'2 4.8
2017-May-26 08:30N 40°39' W 074°10'1 2.7
2017-May-26 08:00N 40°38' W 074°08'0 0.0
2017-May-26 07:29N 40°38' W 074°08'0 0.0
2017-May-26 07:00N 40°38' W 074°08'0 0.0
2017-May-26 06:30N 40°38' W 074°08'0 0.0
2017-May-26 06:00N 40°38' W 074°08'0 0.0
2017-May-26 05:30N 40°38' W 074°08'0 0.0
2017-May-26 05:00N 40°38' W 074°08'0 0.0
2017-May-26 04:30N 40°38' W 074°08'0 0.0
2017-May-26 04:00N 40°38' W 074°08'0 0.0
2017-May-26 03:30N 40°38' W 074°08'0 0.0
2017-May-26 03:00N 40°38' W 074°08'0 0.0
2017-May-26 02:30N 40°38' W 074°08'0 0.0
2017-May-26 02:00N 40°38' W 074°08'0 0.0
2017-May-26 01:30N 40°38' W 074°08'0 0.0
2017-May-26 01:00N 40°38' W 074°08'0 0.0
2017-May-26 00:30N 40°38' W 074°08'0 0.0
2017-May-26 00:00N 40°38' W 074°08'0 0.0
2017-May-25 23:30N 40°38' W 074°08'0 0.0
2017-May-25 23:00N 40°38' W 074°08'0 0.0
2017-May-25 22:30N 40°38' W 074°08'0 0.0
2017-May-25 22:00N 40°38' W 074°08'0 0.0
2017-May-25 21:30N 40°38' W 074°08'0 0.0
2017-May-25 21:00N 40°38' W 074°08'0 0.0
2017-May-25 20:30N 40°38' W 074°08'0 0.0
2017-May-25 20:00N 40°38' W 074°08'0 0.0
2017-May-25 19:30N 40°38' W 074°08'0 0.0
2017-May-25 18:59N 40°38' W 074°08'0 0.0
2017-May-25 18:29N 40°38' W 074°08'0 0.0
2017-May-25 18:00N 40°38' W 074°08'0 0.0
2017-May-25 17:00N 40°38' W 074°08'0 0.0
2017-May-25 16:30N 40°38' W 074°08'0 0.0
2017-May-25 15:59N 40°38' W 074°08'0 0.0
2017-May-25 15:30N 40°38' W 074°08'0 0.0
2017-May-25 15:00N 40°38' W 074°08'0 0.0
2017-May-25 14:30N 40°38' W 074°08'0 0.0
2017-May-25 13:30N 40°38' W 074°08'0 0.0
2017-May-25 13:00N 40°38' W 074°08'0 0.0
2017-May-25 12:30N 40°38' W 074°08'0 0.0
2017-May-25 11:30N 40°38' W 074°08'0 0.0
2017-May-25 11:00N 40°38' W 074°08'0 0.0
2017-May-25 10:30N 40°38' W 074°08'0 0.0
2017-May-25 10:00N 40°38' W 074°08'0 0.0
2017-May-25 09:30N 40°38' W 074°08'0 0.0
2017-May-25 09:00N 40°38' W 074°08'0 0.0
2017-May-25 08:30N 40°38' W 074°08'0 0.0
2017-May-25 08:00N 40°38' W 074°08'0 0.0
2017-May-25 07:30N 40°38' W 074°08'0 0.0
2017-May-25 07:00N 40°38' W 074°08'0 0.0
2017-May-25 06:29N 40°38' W 074°08'0 0.0
2017-May-25 06:00N 40°38' W 074°08'0 0.0
2017-May-25 05:30N 40°38' W 074°08'0 0.0
2017-May-25 05:00N 40°38' W 074°08'0 0.0
2017-May-25 04:29N 40°38' W 074°08'0 0.0
2017-May-25 04:00N 40°38' W 074°08'0 0.0
2017-May-25 03:30N 40°38' W 074°08'0 0.0
2017-May-25 03:00N 40°38' W 074°08'3 6.6
2017-May-25 02:30N 40°38' W 074°12'0 0.2
2017-May-25 01:59N 40°38' W 074°12'3 6.8
2017-May-25 01:30N 40°39' W 074°08'0 0.3
2017-May-25 01:00N 40°38' W 074°08'0 0.0
2017-May-25 00:30N 40°38' W 074°08'0 0.0
2017-May-25 00:00N 40°38' W 074°08'0 0.0
2017-May-24 23:30N 40°38' W 074°08'0 0.0
2017-May-24 23:00N 40°38' W 074°08'0 0.0
2017-May-24 22:30N 40°38' W 074°08'0 0.0
2017-May-24 22:00N 40°38' W 074°08'0 0.0
2017-May-24 21:30N 40°38' W 074°08'0 0.0
2017-May-24 21:00N 40°38' W 074°08'0 0.0
2017-May-24 20:30N 40°38' W 074°08'0 0.0
2017-May-24 20:00N 40°38' W 074°08'0 0.0
2017-May-24 19:30N 40°38' W 074°08'0 0.0
2017-May-24 19:00N 40°38' W 074°08'0 0.0
2017-May-24 18:30N 40°38' W 074°08'0 0.0
2017-May-24 18:00N 40°38' W 074°08'0 0.0
2017-May-24 17:30N 40°38' W 074°08'0 0.0
2017-May-24 17:00N 40°38' W 074°08'0 0.0
2017-May-24 16:30N 40°38' W 074°08'0 0.0
2017-May-24 16:00N 40°38' W 074°08'0 0.0
2017-May-24 15:30N 40°38' W 074°08'0 0.0
2017-May-24 15:00N 40°38' W 074°08'0 0.0
2017-May-24 14:30N 40°38' W 074°08'0 0.0
2017-May-24 13:30N 40°38' W 074°08'0 0.0
2017-May-24 13:00N 40°38' W 074°08'3 5.5
2017-May-24 12:29N 40°38' W 074°12'3 5.4
2017-May-24 11:55N 40°35' W 074°12'0 0.0
2017-May-24 11:29N 40°35' W 074°12'0 0.0
2017-May-24 11:00N 40°35' W 074°12'0 0.0
2017-May-24 10:30N 40°35' W 074°12'0 0.0
2017-May-24 09:58N 40°35' W 074°12'0 0.0
2017-May-24 09:30N 40°35' W 074°12'0 0.0
2017-May-24 08:59N 40°35' W 074°12'0 0.0
2017-May-24 08:13N 40°35' W 074°12'0 0.0
2017-May-24 07:43N 40°35' W 074°12'0 0.0
2017-May-24 07:15N 40°35' W 074°12'0 0.2
2017-May-24 06:18N 40°35' W 074°12'1 0.4
2017-May-24 03:06N 40°37' W 074°12'1 8.3
2017-May-24 02:59N 40°38' W 074°12'3 6.6
2017-May-24 02:30N 40°39' W 074°08'0 0.7
2017-May-24 02:00N 40°38' W 074°08'0 0.0
2017-May-24 01:30N 40°38' W 074°08'0 0.0
2017-May-24 01:00N 40°38' W 074°08'0 0.0
2017-May-24 00:30N 40°38' W 074°08'0 0.0
2017-May-24 00:00N 40°38' W 074°08'0 0.0
2017-May-23 23:30N 40°38' W 074°08'0 0.0
2017-May-23 23:00N 40°38' W 074°08'0 0.0
2017-May-23 22:30N 40°38' W 074°08'0 0.0
2017-May-23 22:00N 40°38' W 074°08'0 0.0
2017-May-23 21:29N 40°38' W 074°08'0 0.0
2017-May-23 21:00N 40°38' W 074°08'0 0.0
2017-May-23 20:31N 40°38' W 074°08'0 0.0
2017-May-23 20:00N 40°38' W 074°08'0 0.0
2017-May-23 19:30N 40°38' W 074°08'0 0.0
2017-May-23 19:01N 40°38' W 074°08'0 0.0
2017-May-23 18:30N 40°38' W 074°08'0 0.0
2017-May-23 18:00N 40°38' W 074°08'0 0.0
2017-May-23 17:29N 40°38' W 074°08'0 0.0
2017-May-23 17:00N 40°38' W 074°08'0 0.0
2017-May-23 16:30N 40°38' W 074°08'0 0.0
2017-May-23 16:00N 40°38' W 074°08'0 0.0
2017-May-23 15:30N 40°38' W 074°08'0 0.0
2017-May-23 14:59N 40°38' W 074°08'0 0.0
2017-May-23 14:00N 40°38' W 074°08'0 0.0
2017-May-23 13:26N 40°38' W 074°08'0 0.0
2017-May-23 13:00N 40°38' W 074°08'0 0.0
2017-May-23 12:30N 40°38' W 074°08'0 0.0
2017-May-23 12:00N 40°38' W 074°08'0 0.0
2017-May-23 11:31N 40°38' W 074°08'0 0.0
2017-May-23 11:01N 40°38' W 074°08'0 0.0
2017-May-23 10:30N 40°38' W 074°08'0 0.0
2017-May-23 10:00N 40°38' W 074°08'0 0.0
2017-May-23 09:30N 40°38' W 074°08'0 0.0
2017-May-23 09:00N 40°38' W 074°08'0 0.0
2017-May-23 08:31N 40°38' W 074°08'0 0.0
2017-May-23 08:00N 40°38' W 074°08'0 0.0
2017-May-23 07:30N 40°38' W 074°08'0 0.0
2017-May-23 07:00N 40°38' W 074°08'0 0.0
2017-May-23 06:28N 40°38' W 074°08'0 0.0
2017-May-23 06:00N 40°38' W 074°08'0 0.0
2017-May-23 05:24N 40°38' W 074°08'0 0.0
2017-May-23 04:39N 40°38' W 074°08'0 0.0
2017-May-23 04:23N 40°38' W 074°08'0 0.0
2017-May-23 03:47N 40°38' W 074°08'0 0.0
2017-May-23 02:21N 40°38' W 074°08'0 0.0
2017-May-23 02:00N 40°38' W 074°08'0 0.0
2017-May-23 01:12N 40°38' W 074°08'0 0.0
2017-May-23 00:54N 40°38' W 074°08'0 0.0
2017-May-23 00:29N 40°38' W 074°08'0 0.0
2017-May-22 23:57N 40°38' W 074°08'0 0.0
2017-May-22 23:30N 40°38' W 074°08'0 0.0
2017-May-22 23:01N 40°38' W 074°08'0 0.0
2017-May-22 22:30N 40°38' W 074°08'0 0.0
2017-May-22 22:00N 40°38' W 074°08'0 0.0
2017-May-22 21:30N 40°38' W 074°08'0 0.0
2017-May-22 21:00N 40°38' W 074°08'0 0.0
2017-May-22 20:31N 40°38' W 074°08'0 0.0
2017-May-22 20:01N 40°38' W 074°08'0 0.0
2017-May-22 19:30N 40°38' W 074°08'0 0.0
2017-May-22 19:00N 40°38' W 074°08'0 0.0
2017-May-22 18:31N 40°38' W 074°08'0 0.0
2017-May-22 18:00N 40°38' W 074°08'0 0.0
2017-May-22 17:28N 40°38' W 074°08'0 0.0
2017-May-22 17:00N 40°38' W 074°08'0 0.0
2017-May-22 16:29N 40°38' W 074°08'0 0.0
2017-May-22 16:00N 40°38' W 074°08'0 0.0
2017-May-22 15:31N 40°38' W 074°08'0 0.0
2017-May-22 15:00N 40°38' W 074°08'0 0.0
2017-May-22 14:01N 40°38' W 074°08'0 0.0
2017-May-22 13:29N 40°38' W 074°08'0 0.0
2017-May-22 13:00N 40°38' W 074°08'0 0.0
2017-May-22 12:30N 40°38' W 074°08'0 0.0
2017-May-22 12:00N 40°38' W 074°08'0 0.0
2017-May-22 11:29N 40°38' W 074°08'0 0.0
2017-May-22 11:01N 40°38' W 074°08'0 0.0
2017-May-22 10:31N 40°38' W 074°08'0 0.0
2017-May-22 10:01N 40°38' W 074°08'0 0.0
2017-May-22 09:30N 40°38' W 074°08'0 0.0
2017-May-22 09:00N 40°38' W 074°08'0 0.0
2017-May-22 08:30N 40°38' W 074°08'0 0.0
2017-May-22 08:01N 40°38' W 074°08'0 0.0
2017-May-22 07:31N 40°38' W 074°08'0 0.0
2017-May-22 07:00N 40°38' W 074°08'0 0.0
2017-May-22 06:30N 40°38' W 074°08'0 0.0
2017-May-22 06:01N 40°38' W 074°08'0 0.0
2017-May-22 05:31N 40°38' W 074°08'0 0.0
2017-May-22 05:00N 40°38' W 074°08'0 0.0
2017-May-22 04:31N 40°38' W 074°08'0 0.0
2017-May-22 04:00N 40°38' W 074°08'0 0.0
2017-May-22 03:30N 40°38' W 074°08'0 0.0
2017-May-22 03:00N 40°38' W 074°08'0 0.0
2017-May-22 02:31N 40°38' W 074°08'0 0.0
2017-May-22 01:59N 40°38' W 074°08'0 0.0
2017-May-22 01:30N 40°38' W 074°08'0 0.0
2017-May-22 01:00N 40°38' W 074°08'0 0.0
2017-May-22 00:30N 40°38' W 074°08'0 0.0
2017-May-22 00:00N 40°38' W 074°08'0 0.0
2017-May-21 23:30N 40°38' W 074°08'0 0.0
2017-May-21 23:01N 40°38' W 074°08'0 0.0
2017-May-21 22:31N 40°38' W 074°08'0 0.0
2017-May-21 22:01N 40°38' W 074°08'0 0.0
2017-May-21 21:31N 40°38' W 074°08'0 0.0
2017-May-21 21:01N 40°38' W 074°08'0 0.0
2017-May-21 20:30N 40°38' W 074°08'0 0.0
2017-May-21 20:00N 40°38' W 074°08'0 0.0
2017-May-21 19:30N 40°38' W 074°08'0 0.0
2017-May-21 19:00N 40°38' W 074°08'0 0.0
2017-May-21 18:31N 40°38' W 074°08'0 0.0
2017-May-21 18:00N 40°38' W 074°08'0 0.0
2017-May-21 17:31N 40°38' W 074°08'0 0.0
2017-May-21 17:00N 40°38' W 074°08'0 0.0
2017-May-21 16:30N 40°38' W 074°08'0 0.0
2017-May-21 16:00N 40°38' W 074°08'0 0.0
2017-May-21 15:30N 40°38' W 074°08'0 0.0
2017-May-21 15:00N 40°38' W 074°08'0 0.0
2017-May-21 14:31N 40°38' W 074°08'0 0.0
2017-May-21 13:29N 40°38' W 074°08'0 0.0
2017-May-21 13:00N 40°38' W 074°08'0 0.0
2017-May-21 12:30N 40°38' W 074°08'0 0.0
2017-May-21 12:01N 40°38' W 074°08'0 0.0
2017-May-21 11:30N 40°38' W 074°08'0 0.0
2017-May-21 11:00N 40°38' W 074°08'0 0.0
2017-May-21 10:30N 40°38' W 074°08'0 0.0
2017-May-21 09:59N 40°38' W 074°08'0 0.0
2017-May-21 09:30N 40°38' W 074°08'0 0.0
2017-May-21 09:00N 40°38' W 074°08'0 0.0
2017-May-21 08:30N 40°38' W 074°08'0 0.0
2017-May-21 08:00N 40°38' W 074°08'0 0.0
2017-May-21 07:30N 40°38' W 074°08'0 0.0
2017-May-21 07:00N 40°38' W 074°08'0 0.0
2017-May-21 06:30N 40°38' W 074°08'0 0.0
2017-May-21 06:01N 40°38' W 074°08'0 0.0
2017-May-21 05:30N 40°38' W 074°08'0 0.0
2017-May-21 05:00N 40°38' W 074°08'0 0.0
2017-May-21 04:30N 40°38' W 074°08'0 0.0
2017-May-21 04:00N 40°38' W 074°08'0 0.0
2017-May-21 03:30N 40°38' W 074°08'0 0.0
2017-May-21 03:00N 40°38' W 074°08'0 0.0
2017-May-21 02:30N 40°38' W 074°08'0 0.0
2017-May-21 02:01N 40°38' W 074°08'0 0.0
2017-May-21 01:30N 40°38' W 074°08'0 0.0
2017-May-21 01:00N 40°38' W 074°08'0 0.0
2017-May-21 00:31N 40°38' W 074°08'0 0.0
2017-May-21 00:00N 40°38' W 074°08'0 0.0
2017-May-20 23:30N 40°38' W 074°08'0 0.0
2017-May-20 23:01N 40°38' W 074°08'0 0.0
2017-May-20 22:30N 40°38' W 074°08'0 0.0
2017-May-20 22:01N 40°38' W 074°08'0 0.0
2017-May-20 21:30N 40°38' W 074°08'0 0.0
2017-May-20 21:00N 40°38' W 074°08'0 0.0
2017-May-20 20:31N 40°38' W 074°08'0 0.0
2017-May-20 20:00N 40°38' W 074°08'0 0.0
2017-May-20 19:31N 40°38' W 074°08'0 0.0
2017-May-20 19:01N 40°38' W 074°08'0 0.0
2017-May-20 18:31N 40°38' W 074°08'0 0.0
2017-May-20 18:00N 40°38' W 074°08'0 0.0
2017-May-20 17:30N 40°38' W 074°08'0 0.0
2017-May-20 17:00N 40°38' W 074°08'0 0.0
2017-May-20 16:30N 40°38' W 074°08'0 0.0
2017-May-20 16:00N 40°38' W 074°08'0 0.0
2017-May-20 15:31N 40°38' W 074°08'0 0.0
2017-May-20 15:00N 40°38' W 074°08'0 0.0
2017-May-20 14:31N 40°38' W 074°08'0 0.0
2017-May-20 13:30N 40°38' W 074°08'0 0.0
2017-May-20 13:00N 40°38' W 074°08'0 0.0
2017-May-20 12:30N 40°38' W 074°08'0 0.0
2017-May-20 12:00N 40°38' W 074°08'0 0.0
2017-May-20 11:30N 40°38' W 074°08'0 0.0
2017-May-20 11:00N 40°38' W 074°08'0 0.0
2017-May-20 10:31N 40°38' W 074°08'0 0.0
2017-May-20 10:01N 40°38' W 074°08'0 0.0
2017-May-20 09:31N 40°38' W 074°08'0 0.0
2017-May-20 09:00N 40°38' W 074°08'0 0.0
2017-May-20 08:30N 40°38' W 074°08'0 0.0
2017-May-20 08:01N 40°38' W 074°08'0 0.0
2017-May-20 07:30N 40°38' W 074°08'0 0.0
2017-May-20 07:00N 40°38' W 074°08'0 0.0
2017-May-20 06:31N 40°38' W 074°08'0 0.0
2017-May-20 06:01N 40°38' W 074°08'0 0.0
2017-May-20 05:31N 40°38' W 074°08'0 0.0
2017-May-20 05:00N 40°38' W 074°08'0 0.0
2017-May-20 04:31N 40°38' W 074°08'0 0.0
2017-May-20 04:00N 40°38' W 074°08'0 0.0
2017-May-20 03:30N 40°38' W 074°08'0 0.0
2017-May-20 03:00N 40°38' W 074°08'0 0.0
2017-May-20 02:30N 40°38' W 074°08'0 0.0
2017-May-20 02:00N 40°38' W 074°08'0 0.0
2017-May-20 01:30N 40°38' W 074°08'0 0.0
2017-May-20 01:00N 40°38' W 074°08'0 0.0
2017-May-20 00:30N 40°38' W 074°08'0 0.0
2017-May-20 00:00N 40°38' W 074°08'0 0.0
2017-May-19 23:30N 40°38' W 074°08'0 0.0
2017-May-19 23:00N 40°38' W 074°08'0 0.0
2017-May-19 22:29N 40°38' W 074°08'0 0.0
2017-May-19 22:01N 40°38' W 074°08'0 0.0
2017-May-19 21:30N 40°38' W 074°08'0 0.0
2017-May-19 21:00N 40°38' W 074°08'0 0.0
2017-May-19 20:30N 40°38' W 074°08'0 0.0
2017-May-19 20:00N 40°38' W 074°08'0 0.0
2017-May-19 19:30N 40°38' W 074°08'0 0.0
2017-May-19 19:00N 40°38' W 074°08'0 0.0
2017-May-19 18:31N 40°38' W 074°08'0 0.0
2017-May-19 18:00N 40°38' W 074°08'0 0.0
2017-May-19 17:30N 40°38' W 074°08'0 0.0
2017-May-19 17:00N 40°38' W 074°08'0 0.0
2017-May-19 16:31N 40°38' W 074°08'0 0.0
2017-May-19 16:00N 40°38' W 074°08'0 0.0
2017-May-19 15:30N 40°38' W 074°08'0 0.0
2017-May-19 15:00N 40°38' W 074°08'0 0.0
2017-May-19 14:00N 40°38' W 074°08'0 0.0
2017-May-19 13:30N 40°38' W 074°08'0 0.0
2017-May-19 13:00N 40°38' W 074°08'0 0.0
2017-May-19 12:30N 40°38' W 074°08'0 0.0
2017-May-19 12:00N 40°38' W 074°08'0 0.0
2017-May-19 11:30N 40°38' W 074°08'0 0.0
2017-May-19 11:00N 40°38' W 074°08'0 0.0
2017-May-19 10:30N 40°38' W 074°08'0 0.0
2017-May-19 10:00N 40°38' W 074°08'0 0.0
2017-May-19 09:31N 40°38' W 074°08'0 0.0
2017-May-19 09:01N 40°38' W 074°08'0 0.0
2017-May-19 08:30N 40°38' W 074°08'0 0.0
2017-May-19 08:00N 40°38' W 074°08'0 0.0
2017-May-19 07:31N 40°38' W 074°08'0 0.0
2017-May-19 07:00N 40°38' W 074°08'0 0.0
2017-May-19 06:30N 40°38' W 074°08'0 0.0
2017-May-19 06:01N 40°38' W 074°08'0 0.0
2017-May-19 05:30N 40°38' W 074°08'0 0.0
2017-May-19 05:00N 40°38' W 074°08'0 0.0
2017-May-19 04:30N 40°38' W 074°08'0 0.0
2017-May-19 04:01N 40°38' W 074°08'0 0.0
2017-May-19 03:31N 40°38' W 074°08'0 0.0
2017-May-19 03:01N 40°38' W 074°08'0 0.0
2017-May-19 02:31N 40°38' W 074°08'0 0.0
2017-May-19 02:00N 40°38' W 074°08'0 0.0
2017-May-19 01:30N 40°38' W 074°08'0 0.0
2017-May-19 01:00N 40°38' W 074°08'0 0.0
2017-May-19 00:30N 40°38' W 074°08'0 0.0
2017-May-19 00:01N 40°38' W 074°08'0 0.0
2017-May-18 23:30N 40°38' W 074°08'0 0.0
2017-May-18 23:00N 40°38' W 074°08'0 0.0
2017-May-18 22:30N 40°38' W 074°08'0 0.0
2017-May-18 22:01N 40°38' W 074°08'0 0.0
2017-May-18 21:31N 40°38' W 074°08'0 0.0
2017-May-18 21:00N 40°38' W 074°08'0 0.0
2017-May-18 20:30N 40°38' W 074°08'0 0.0
2017-May-18 20:00N 40°38' W 074°08'0 0.0
2017-May-18 19:30N 40°38' W 074°08'0 0.0
2017-May-18 19:00N 40°38' W 074°08'0 0.0
2017-May-18 18:30N 40°38' W 074°08'0 0.0
2017-May-18 18:00N 40°38' W 074°08'0 0.0
2017-May-18 17:29N 40°38' W 074°08'0 0.0
2017-May-18 17:00N 40°38' W 074°08'0 0.0
2017-May-18 16:30N 40°38' W 074°08'0 0.0
2017-May-18 16:00N 40°38' W 074°08'0 0.0
2017-May-18 15:31N 40°38' W 074°08'0 0.0
2017-May-18 15:00N 40°38' W 074°08'0 0.0
2017-May-18 13:53N 40°38' W 074°08'0 0.0
2017-May-18 13:31N 40°38' W 074°08'0 0.0
2017-May-18 13:00N 40°38' W 074°08'0 0.0
2017-May-18 12:30N 40°38' W 074°08'0 0.0
2017-May-18 12:00N 40°38' W 074°08'0 0.0
2017-May-18 11:29N 40°38' W 074°08'0 0.0
2017-May-18 11:01N 40°38' W 074°08'0 0.0
2017-May-18 10:30N 40°38' W 074°08'0 0.0
2017-May-18 10:00N 40°38' W 074°08'0 0.0
2017-May-18 09:30N 40°38' W 074°08'0 0.0
2017-May-18 09:00N 40°38' W 074°08'0 0.0
2017-May-18 08:30N 40°38' W 074°08'0 0.0
2017-May-18 08:00N 40°38' W 074°08'0 0.0
2017-May-18 07:30N 40°38' W 074°08'0 0.0
2017-May-18 07:00N 40°38' W 074°08'0 0.0
2017-May-18 06:28N 40°38' W 074°08'0 0.0
2017-May-18 06:01N 40°38' W 074°08'0 0.0
2017-May-18 05:31N 40°38' W 074°08'0 0.0
2017-May-18 04:59N 40°38' W 074°08'0 0.0
2017-May-18 04:31N 40°38' W 074°08'0 0.0
2017-May-18 04:01N 40°38' W 074°08'0 0.0
2017-May-18 03:31N 40°38' W 074°08'0 0.0
2017-May-18 02:54N 40°38' W 074°08'0 0.0
2017-May-18 02:29N 40°38' W 074°08'0 0.0
2017-May-18 02:00N 40°38' W 074°08'0 0.0
2017-May-18 01:30N 40°38' W 074°08'0 0.0
2017-May-18 00:59N 40°38' W 074°08'0 0.0
2017-May-18 00:30N 40°38' W 074°08'0 0.0
2017-May-18 00:00N 40°38' W 074°08'0 0.0
2017-May-17 23:30N 40°38' W 074°08'0 0.0
2017-May-17 23:00N 40°38' W 074°08'0 0.0
2017-May-17 22:30N 40°38' W 074°08'0 0.0
2017-May-17 22:00N 40°38' W 074°08'0 0.0
2017-May-17 21:31N 40°38' W 074°08'0 0.0
2017-May-17 21:00N 40°38' W 074°08'0 0.0
2017-May-17 20:29N 40°38' W 074°08'0 0.0
2017-May-17 20:00N 40°38' W 074°08'0 0.0
2017-May-17 19:30N 40°38' W 074°08'0 0.0
2017-May-17 19:00N 40°38' W 074°08'0 0.0
2017-May-17 18:30N 40°38' W 074°08'0 0.0
2017-May-17 18:00N 40°38' W 074°08'0 0.0
2017-May-17 17:30N 40°38' W 074°08'0 0.0
2017-May-17 17:00N 40°38' W 074°08'0 0.0
2017-May-17 16:30N 40°38' W 074°08'0 0.0
2017-May-17 16:00N 40°38' W 074°08'0 0.0
2017-May-17 15:30N 40°38' W 074°08'0 0.0
2017-May-17 15:00N 40°38' W 074°08'0 0.0
2017-May-17 14:30N 40°38' W 074°08'0 0.0
2017-May-17 13:31N 40°38' W 074°08'0 0.0
2017-May-17 13:00N 40°38' W 074°08'0 0.0
2017-May-17 12:27N 40°38' W 074°08'0 0.0
2017-May-17 12:00N 40°38' W 074°08'0 0.0
2017-May-17 11:29N 40°38' W 074°08'0 0.0
2017-May-17 11:00N 40°38' W 074°08'0 0.0
2017-May-17 10:30N 40°38' W 074°08'0 0.0
2017-May-17 10:00N 40°38' W 074°08'0 0.0
2017-May-17 09:30N 40°38' W 074°08'0 0.0
2017-May-17 09:00N 40°38' W 074°08'0 0.0
2017-May-17 08:30N 40°38' W 074°08'0 0.0
2017-May-17 07:59N 40°38' W 074°08'0 0.0
2017-May-17 07:30N 40°38' W 074°08'0 0.0
2017-May-17 07:00N 40°38' W 074°08'0 0.0
2017-May-17 06:30N 40°38' W 074°08'0 0.0
2017-May-17 06:00N 40°38' W 074°08'0 0.0
2017-May-17 05:30N 40°38' W 074°08'0 0.0
2017-May-17 05:01N 40°38' W 074°08'0 0.0
2017-May-17 04:31N 40°38' W 074°08'0 0.0
2017-May-17 04:00N 40°38' W 074°08'0 0.0
2017-May-17 03:30N 40°38' W 074°08'0 0.0
2017-May-17 03:00N 40°38' W 074°08'0 0.0
2017-May-17 02:30N 40°38' W 074°08'0 0.0
2017-May-17 02:01N 40°38' W 074°08'0 0.0
2017-May-17 01:29N 40°38' W 074°08'0 0.0
2017-May-17 01:00N 40°38' W 074°08'0 0.0
2017-May-17 00:30N 40°38' W 074°08'0 0.0
2017-May-17 00:01N 40°38' W 074°08'0 0.0
2017-May-16 23:30N 40°38' W 074°08'0 0.0
2017-May-16 23:00N 40°38' W 074°08'0 0.0
2017-May-16 22:30N 40°38' W 074°08'0 0.0
2017-May-16 22:00N 40°38' W 074°08'0 0.0
2017-May-16 21:30N 40°38' W 074°08'0 0.0
2017-May-16 21:00N 40°38' W 074°08'0 0.0
2017-May-16 20:30N 40°38' W 074°08'0 0.0
2017-May-16 20:00N 40°38' W 074°08'0 0.0
2017-May-16 19:29N 40°38' W 074°08'0 0.0
2017-May-16 19:00N 40°38' W 074°08'0 0.0
2017-May-16 18:30N 40°38' W 074°08'0 0.0
2017-May-16 18:00N 40°38' W 074°08'0 0.0
2017-May-16 17:30N 40°38' W 074°08'0 0.0
2017-May-16 17:00N 40°38' W 074°08'0 0.0
2017-May-16 16:30N 40°38' W 074°08'0 0.0
2017-May-16 16:00N 40°38' W 074°08'0 0.0
2017-May-16 15:30N 40°38' W 074°08'0 0.0
2017-May-16 15:00N 40°38' W 074°08'0 0.0
2017-May-16 14:26N 40°38' W 074°08'0 0.0
2017-May-16 13:31N 40°38' W 074°08'0 0.0
2017-May-16 13:01N 40°38' W 074°08'0 0.0
2017-May-16 12:30N 40°38' W 074°08'0 0.0
2017-May-16 12:00N 40°38' W 074°08'0 0.0
2017-May-16 11:30N 40°38' W 074°08'  
Track history (hours):
 
Tides and Currents Weather Stations Pressure Air Temp Water Temp Dewpoint Dewpoint Depression Visibility Wind Speed Wind Dir Waves Ship Positions

Al Cenac

Owner: Caillou Island Towing Co, Inc., Houma, LA. More information available from US FCC via Universal Licensing System and Coast Guard Vessel Documentation Center.

Last reported at 2017-May-26 16:30 UTC. Time now 2017-May-26 16:55 UTC.
Position N 40°38' W 074°08'.

; draft 10 m.

Type: Tug. MMSI: 367158530.

Date/timePositionNaut miles runAvg speedWind from/ knotsBaromVisibWave heightAir tempDewpointWater temp
2017-May-26 16:30N 40°38' W 074°08'0 0.0
2017-May-26 16:00N 40°38' W 074°08'0 0.0
2017-May-26 15:30N 40°38' W 074°08'0 0.0
2017-May-26 15:00N 40°38' W 074°08'0 0.0
2017-May-26 14:30N 40°38' W 074°08'0 0.0
2017-May-26 13:30N 40°38' W 074°08'0 0.0
2017-May-26 13:00N 40°38' W 074°08'0 0.0
2017-May-26 12:30N 40°38' W 074°08'0 0.0
2017-May-26 12:00N 40°38' W 074°08'0 0.0
2017-May-26 11:30N 40°38' W 074°08'0 0.0
2017-May-26 11:00N 40°38' W 074°08'0 0.0
2017-May-26 10:30N 40°38' W 074°08'2 3.9
2017-May-26 10:00N 40°39' W 074°11'2 3.4
2017-May-26 09:27N 40°38' W 074°12'0 0.1
2017-May-26 09:00N 40°38' W 074°12'2 4.8
2017-May-26 08:30N 40°39' W 074°10'1 2.7
2017-May-26 08:00N 40°38' W 074°08'0 0.0
2017-May-26 07:29N 40°38' W 074°08'0 0.0
2017-May-26 07:00N 40°38' W 074°08'0 0.0
2017-May-26 06:30N 40°38' W 074°08'0 0.0
2017-May-26 06:00N 40°38' W 074°08'0 0.0
2017-May-26 05:30N 40°38' W 074°08'0 0.0
2017-May-26 05:00N 40°38' W 074°08'0 0.0
2017-May-26 04:30N 40°38' W 074°08'0 0.0
2017-May-26 04:00N 40°38' W 074°08'0 0.0
2017-May-26 03:30N 40°38' W 074°08'0 0.0
2017-May-26 03:00N 40°38' W 074°08'0 0.0
2017-May-26 02:30N 40°38' W 074°08'0 0.0
2017-May-26 02:00N 40°38' W 074°08'0 0.0
2017-May-26 01:30N 40°38' W 074°08'0 0.0
2017-May-26 01:00N 40°38' W 074°08'0 0.0
2017-May-26 00:30N 40°38' W 074°08'0 0.0
2017-May-26 00:00N 40°38' W 074°08'0 0.0
2017-May-25 23:30N 40°38' W 074°08'0 0.0
2017-May-25 23:00N 40°38' W 074°08'0 0.0
2017-May-25 22:30N 40°38' W 074°08'0 0.0
2017-May-25 22:00N 40°38' W 074°08'0 0.0
2017-May-25 21:30N 40°38' W 074°08'0 0.0
2017-May-25 21:00N 40°38' W 074°08'0 0.0
2017-May-25 20:30N 40°38' W 074°08'0 0.0
2017-May-25 20:00N 40°38' W 074°08'0 0.0
2017-May-25 19:30N 40°38' W 074°08'0 0.0
2017-May-25 18:59N 40°38' W 074°08'0 0.0
2017-May-25 18:29N 40°38' W 074°08'0 0.0
2017-May-25 18:00N 40°38' W 074°08'0 0.0
2017-May-25 17:00N 40°38' W 074°08'0 0.0
2017-May-25 16:30N 40°38' W 074°08'0 0.0
2017-May-25 15:59N 40°38' W 074°08'0 0.0
2017-May-25 15:30N 40°38' W 074°08'0 0.0
2017-May-25 15:00N 40°38' W 074°08'0 0.0
2017-May-25 14:30N 40°38' W 074°08'0 0.0
2017-May-25 13:30N 40°38' W 074°08'0 0.0
2017-May-25 13:00N 40°38' W 074°08'0 0.0
2017-May-25 12:30N 40°38' W 074°08'0 0.0
2017-May-25 11:30N 40°38' W 074°08'0 0.0
2017-May-25 11:00N 40°38' W 074°08'0 0.0
2017-May-25 10:30N 40°38' W 074°08'0 0.0
2017-May-25 10:00N 40°38' W 074°08'0 0.0
2017-May-25 09:30N 40°38' W 074°08'0 0.0
2017-May-25 09:00N 40°38' W 074°08'0 0.0
2017-May-25 08:30N 40°38' W 074°08'0 0.0
2017-May-25 08:00N 40°38' W 074°08'0 0.0
2017-May-25 07:30N 40°38' W 074°08'0 0.0
2017-May-25 07:00N 40°38' W 074°08'0 0.0
2017-May-25 06:29N 40°38' W 074°08'0 0.0
2017-May-25 06:00N 40°38' W 074°08'0 0.0
2017-May-25 05:30N 40°38' W 074°08'0 0.0
2017-May-25 05:00N 40°38' W 074°08'0 0.0
2017-May-25 04:29N 40°38' W 074°08'0 0.0
2017-May-25 04:00N 40°38' W 074°08'0 0.0
2017-May-25 03:30N 40°38' W 074°08'0 0.0
2017-May-25 03:00N 40°38' W 074°08'3 6.6
2017-May-25 02:30N 40°38' W 074°12'0 0.2
2017-May-25 01:59N 40°38' W 074°12'3 6.8
2017-May-25 01:30N 40°39' W 074°08'0 0.3
2017-May-25 01:00N 40°38' W 074°08'0 0.0
2017-May-25 00:30N 40°38' W 074°08'0 0.0
2017-May-25 00:00N 40°38' W 074°08'0 0.0
2017-May-24 23:30N 40°38' W 074°08'0 0.0
2017-May-24 23:00N 40°38' W 074°08'0 0.0
2017-May-24 22:30N 40°38' W 074°08'0 0.0
2017-May-24 22:00N 40°38' W 074°08'0 0.0
2017-May-24 21:30N 40°38' W 074°08'0 0.0
2017-May-24 21:00N 40°38' W 074°08'0 0.0
2017-May-24 20:30N 40°38' W 074°08'0 0.0
2017-May-24 20:00N 40°38' W 074°08'0 0.0
2017-May-24 19:30N 40°38' W 074°08'0 0.0
2017-May-24 19:00N 40°38' W 074°08'0 0.0
2017-May-24 18:30N 40°38' W 074°08'0 0.0
2017-May-24 18:00N 40°38' W 074°08'0 0.0
2017-May-24 17:30N 40°38' W 074°08'0 0.0
2017-May-24 17:00N 40°38' W 074°08'0 0.0
2017-May-24 16:30N 40°38' W 074°08'0 0.0
2017-May-24 16:00N 40°38' W 074°08'0 0.0
2017-May-24 15:30N 40°38' W 074°08'0 0.0
2017-May-24 15:00N 40°38' W 074°08'0 0.0
2017-May-24 14:30N 40°38' W 074°08'0 0.0
2017-May-24 13:30N 40°38' W 074°08'0 0.0
2017-May-24 13:00N 40°38' W 074°08'3 5.5
2017-May-24 12:29N 40°38' W 074°12'3 5.4
2017-May-24 11:55N 40°35' W 074°12'0 0.0
2017-May-24 11:29N 40°35' W 074°12'0 0.0
2017-May-24 11:00N 40°35' W 074°12'0 0.0
2017-May-24 10:30N 40°35' W 074°12'0 0.0
2017-May-24 09:58N 40°35' W 074°12'0 0.0
2017-May-24 09:30N 40°35' W 074°12'0 0.0
2017-May-24 08:59N 40°35' W 074°12'0 0.0
2017-May-24 08:13N 40°35' W 074°12'0 0.0
2017-May-24 07:43N 40°35' W 074°12'0 0.0
2017-May-24 07:15N 40°35' W 074°12'0 0.2
2017-May-24 06:18N 40°35' W 074°12'1 0.4
2017-May-24 03:06N 40°37' W 074°12'1 8.3
2017-May-24 02:59N 40°38' W 074°12'3 6.6
2017-May-24 02:30N 40°39' W 074°08'0 0.7
2017-May-24 02:00N 40°38' W 074°08'0 0.0
2017-May-24 01:30N 40°38' W 074°08'0 0.0
2017-May-24 01:00N 40°38' W 074°08'0 0.0
2017-May-24 00:30N 40°38' W 074°08'0 0.0
2017-May-24 00:00N 40°38' W 074°08'0 0.0
2017-May-23 23:30N 40°38' W 074°08'0 0.0
2017-May-23 23:00N 40°38' W 074°08'0 0.0
2017-May-23 22:30N 40°38' W 074°08'0 0.0
2017-May-23 22:00N 40°38' W 074°08'0 0.0
2017-May-23 21:29N 40°38' W 074°08'0 0.0
2017-May-23 21:00N 40°38' W 074°08'0 0.0
2017-May-23 20:31N 40°38' W 074°08'0 0.0
2017-May-23 20:00N 40°38' W 074°08'0 0.0
2017-May-23 19:30N 40°38' W 074°08'0 0.0
2017-May-23 19:01N 40°38' W 074°08'0 0.0
2017-May-23 18:30N 40°38' W 074°08'0 0.0
2017-May-23 18:00N 40°38' W 074°08'0 0.0
2017-May-23 17:29N 40°38' W 074°08'0 0.0
2017-May-23 17:00N 40°38' W 074°08'0 0.0
2017-May-23 16:30N 40°38' W 074°08'0 0.0
2017-May-23 16:00N 40°38' W 074°08'0 0.0
2017-May-23 15:30N 40°38' W 074°08'0 0.0
2017-May-23 14:59N 40°38' W 074°08'0 0.0
2017-May-23 14:00N 40°38' W 074°08'0 0.0
2017-May-23 13:26N 40°38' W 074°08'0 0.0
2017-May-23 13:00N 40°38' W 074°08'0 0.0
2017-May-23 12:30N 40°38' W 074°08'0 0.0
2017-May-23 12:00N 40°38' W 074°08'0 0.0
2017-May-23 11:31N 40°38' W 074°08'0 0.0
2017-May-23 11:01N 40°38' W 074°08'0 0.0
2017-May-23 10:30N 40°38' W 074°08'0 0.0
2017-May-23 10:00N 40°38' W 074°08'0 0.0
2017-May-23 09:30N 40°38' W 074°08'0 0.0
2017-May-23 09:00N 40°38' W 074°08'0 0.0
2017-May-23 08:31N 40°38' W 074°08'0 0.0
2017-May-23 08:00N 40°38' W 074°08'0 0.0
2017-May-23 07:30N 40°38' W 074°08'0 0.0
2017-May-23 07:00N 40°38' W 074°08'0 0.0
2017-May-23 06:28N 40°38' W 074°08'0 0.0
2017-May-23 06:00N 40°38' W 074°08'0 0.0
2017-May-23 05:24N 40°38' W 074°08'0 0.0
2017-May-23 04:39N 40°38' W 074°08'0 0.0
2017-May-23 04:23N 40°38' W 074°08'0 0.0
2017-May-23 03:47N 40°38' W 074°08'0 0.0
2017-May-23 02:21N 40°38' W 074°08'0 0.0
2017-May-23 02:00N 40°38' W 074°08'0 0.0
2017-May-23 01:12N 40°38' W 074°08'0 0.0
2017-May-23 00:54N 40°38' W 074°08'0 0.0
2017-May-23 00:29N 40°38' W 074°08'0 0.0
2017-May-22 23:57N 40°38' W 074°08'0 0.0
2017-May-22 23:30N 40°38' W 074°08'0 0.0
2017-May-22 23:01N 40°38' W 074°08'0 0.0
2017-May-22 22:30N 40°38' W 074°08'0 0.0
2017-May-22 22:00N 40°38' W 074°08'0 0.0
2017-May-22 21:30N 40°38' W 074°08'0 0.0
2017-May-22 21:00N 40°38' W 074°08'0 0.0
2017-May-22 20:31N 40°38' W 074°08'0 0.0
2017-May-22 20:01N 40°38' W 074°08'0 0.0
2017-May-22 19:30N 40°38' W 074°08'0 0.0
2017-May-22 19:00N 40°38' W 074°08'0 0.0
2017-May-22 18:31N 40°38' W 074°08'0 0.0
2017-May-22 18:00N 40°38' W 074°08'0 0.0
2017-May-22 17:28N 40°38' W 074°08'0 0.0
2017-May-22 17:00N 40°38' W 074°08'0 0.0
2017-May-22 16:29N 40°38' W 074°08'0 0.0
2017-May-22 16:00N 40°38' W 074°08'0 0.0
2017-May-22 15:31N 40°38' W 074°08'0 0.0
2017-May-22 15:00N 40°38' W 074°08'0 0.0
2017-May-22 14:01N 40°38' W 074°08'0 0.0
2017-May-22 13:29N 40°38' W 074°08'0 0.0
2017-May-22 13:00N 40°38' W 074°08'0 0.0
2017-May-22 12:30N 40°38' W 074°08'0 0.0
2017-May-22 12:00N 40°38' W 074°08'0 0.0
2017-May-22 11:29N 40°38' W 074°08'0 0.0
2017-May-22 11:01N 40°38' W 074°08'0 0.0
2017-May-22 10:31N 40°38' W 074°08'0 0.0
2017-May-22 10:01N 40°38' W 074°08'0 0.0
2017-May-22 09:30N 40°38' W 074°08'0 0.0
2017-May-22 09:00N 40°38' W 074°08'0 0.0
2017-May-22 08:30N 40°38' W 074°08'0 0.0
2017-May-22 08:01N 40°38' W 074°08'0 0.0
2017-May-22 07:31N 40°38' W 074°08'0 0.0
2017-May-22 07:00N 40°38' W 074°08'0 0.0
2017-May-22 06:30N 40°38' W 074°08'0 0.0
2017-May-22 06:01N 40°38' W 074°08'0 0.0
2017-May-22 05:31N 40°38' W 074°08'0 0.0
2017-May-22 05:00N 40°38' W 074°08'0 0.0
2017-May-22 04:31N 40°38' W 074°08'0 0.0
2017-May-22 04:00N 40°38' W 074°08'0 0.0
2017-May-22 03:30N 40°38' W 074°08'0 0.0
2017-May-22 03:00N 40°38' W 074°08'0 0.0
2017-May-22 02:31N 40°38' W 074°08'0 0.0
2017-May-22 01:59N 40°38' W 074°08'0 0.0
2017-May-22 01:30N 40°38' W 074°08'0 0.0
2017-May-22 01:00N 40°38' W 074°08'0 0.0
2017-May-22 00:30N 40°38' W 074°08'0 0.0
2017-May-22 00:00N 40°38' W 074°08'0 0.0
2017-May-21 23:30N 40°38' W 074°08'0 0.0
2017-May-21 23:01N 40°38' W 074°08'0 0.0
2017-May-21 22:31N 40°38' W 074°08'0 0.0
2017-May-21 22:01N 40°38' W 074°08'0 0.0
2017-May-21 21:31N 40°38' W 074°08'0 0.0
2017-May-21 21:01N 40°38' W 074°08'0 0.0
2017-May-21 20:30N 40°38' W 074°08'0 0.0
2017-May-21 20:00N 40°38' W 074°08'0 0.0
2017-May-21 19:30N 40°38' W 074°08'0 0.0
2017-May-21 19:00N 40°38' W 074°08'0 0.0
2017-May-21 18:31N 40°38' W 074°08'0 0.0
2017-May-21 18:00N 40°38' W 074°08'0 0.0
2017-May-21 17:31N 40°38' W 074°08'0 0.0
2017-May-21 17:00N 40°38' W 074°08'0 0.0
2017-May-21 16:30N 40°38' W 074°08'0 0.0
2017-May-21 16:00N 40°38' W 074°08'0 0.0
2017-May-21 15:30N 40°38' W 074°08'0 0.0
2017-May-21 15:00N 40°38' W 074°08'0 0.0
2017-May-21 14:31N 40°38' W 074°08'0 0.0
2017-May-21 13:29N 40°38' W 074°08'0 0.0
2017-May-21 13:00N 40°38' W 074°08'0 0.0
2017-May-21 12:30N 40°38' W 074°08'0 0.0
2017-May-21 12:01N 40°38' W 074°08'0 0.0
2017-May-21 11:30N 40°38' W 074°08'0 0.0
2017-May-21 11:00N 40°38' W 074°08'0 0.0
2017-May-21 10:30N 40°38' W 074°08'0 0.0
2017-May-21 09:59N 40°38' W 074°08'0 0.0
2017-May-21 09:30N 40°38' W 074°08'0 0.0
2017-May-21 09:00N 40°38' W 074°08'0 0.0
2017-May-21 08:30N 40°38' W 074°08'0 0.0
2017-May-21 08:00N 40°38' W 074°08'0 0.0
2017-May-21 07:30N 40°38' W 074°08'0 0.0
2017-May-21 07:00N 40°38' W 074°08'0 0.0
2017-May-21 06:30N 40°38' W 074°08'0 0.0
2017-May-21 06:01N 40°38' W 074°08'0 0.0
2017-May-21 05:30N 40°38' W 074°08'0 0.0
2017-May-21 05:00N 40°38' W 074°08'0 0.0
2017-May-21 04:30N 40°38' W 074°08'0 0.0
2017-May-21 04:00N 40°38' W 074°08'0 0.0
2017-May-21 03:30N 40°38' W 074°08'0 0.0
2017-May-21 03:00N 40°38' W 074°08'0 0.0
2017-May-21 02:30N 40°38' W 074°08'0 0.0
2017-May-21 02:01N 40°38' W 074°08'0 0.0
2017-May-21 01:30N 40°38' W 074°08'0 0.0
2017-May-21 01:00N 40°38' W 074°08'0 0.0
2017-May-21 00:31N 40°38' W 074°08'0 0.0
2017-May-21 00:00N 40°38' W 074°08'0 0.0
2017-May-20 23:30N 40°38' W 074°08'0 0.0
2017-May-20 23:01N 40°38' W 074°08'0 0.0
2017-May-20 22:30N 40°38' W 074°08'0 0.0
2017-May-20 22:01N 40°38' W 074°08'0 0.0
2017-May-20 21:30N 40°38' W 074°08'0 0.0
2017-May-20 21:00N 40°38' W 074°08'0 0.0
2017-May-20 20:31N 40°38' W 074°08'0 0.0
2017-May-20 20:00N 40°38' W 074°08'0 0.0
2017-May-20 19:31N 40°38' W 074°08'0 0.0
2017-May-20 19:01N 40°38' W 074°08'0 0.0
2017-May-20 18:31N 40°38' W 074°08'0 0.0
2017-May-20 18:00N 40°38' W 074°08'0 0.0
2017-May-20 17:30N 40°38' W 074°08'0 0.0
2017-May-20 17:00N 40°38' W 074°08'0 0.0
2017-May-20 16:30N 40°38' W 074°08'0 0.0
2017-May-20 16:00N 40°38' W 074°08'0 0.0
2017-May-20 15:31N 40°38' W 074°08'0 0.0
2017-May-20 15:00N 40°38' W 074°08'0 0.0
2017-May-20 14:31N 40°38' W 074°08'0 0.0
2017-May-20 13:30N 40°38' W 074°08'0 0.0
2017-May-20 13:00N 40°38' W 074°08'0 0.0
2017-May-20 12:30N 40°38' W 074°08'0 0.0
2017-May-20 12:00N 40°38' W 074°08'0 0.0
2017-May-20 11:30N 40°38' W 074°08'0 0.0
2017-May-20 11:00N 40°38' W 074°08'0 0.0
2017-May-20 10:31N 40°38' W 074°08'0 0.0
2017-May-20 10:01N 40°38' W 074°08'0 0.0
2017-May-20 09:31N 40°38' W 074°08'0 0.0
2017-May-20 09:00N 40°38' W 074°08'0 0.0
2017-May-20 08:30N 40°38' W 074°08'0 0.0
2017-May-20 08:01N 40°38' W 074°08'0 0.0
2017-May-20 07:30N 40°38' W 074°08'0 0.0
2017-May-20 07:00N 40°38' W 074°08'0 0.0
2017-May-20 06:31N 40°38' W 074°08'0 0.0
2017-May-20 06:01N 40°38' W 074°08'0 0.0
2017-May-20 05:31N 40°38' W 074°08'0 0.0
2017-May-20 05:00N 40°38' W 074°08'0 0.0
2017-May-20 04:31N 40°38' W 074°08'0 0.0
2017-May-20 04:00N 40°38' W 074°08'0 0.0
2017-May-20 03:30N 40°38' W 074°08'0 0.0
2017-May-20 03:00N 40°38' W 074°08'0 0.0
2017-May-20 02:30N 40°38' W 074°08'0 0.0
2017-May-20 02:00N 40°38' W 074°08'0 0.0
2017-May-20 01:30N 40°38' W 074°08'0 0.0
2017-May-20 01:00N 40°38' W 074°08'0 0.0
2017-May-20 00:30N 40°38' W 074°08'0 0.0
2017-May-20 00:00N 40°38' W 074°08'0 0.0
2017-May-19 23:30N 40°38' W 074°08'0 0.0
2017-May-19 23:00N 40°38' W 074°08'0 0.0
2017-May-19 22:29N 40°38' W 074°08'0 0.0
2017-May-19 22:01N 40°38' W 074°08'0 0.0
2017-May-19 21:30N 40°38' W 074°08'0 0.0
2017-May-19 21:00N 40°38' W 074°08'0 0.0
2017-May-19 20:30N 40°38' W 074°08'0 0.0
2017-May-19 20:00N 40°38' W 074°08'0 0.0
2017-May-19 19:30N 40°38' W 074°08'0 0.0
2017-May-19 19:00N 40°38' W 074°08'0 0.0
2017-May-19 18:31N 40°38' W 074°08'0 0.0
2017-May-19 18:00N 40°38' W 074°08'0 0.0
2017-May-19 17:30N 40°38' W 074°08'0 0.0
2017-May-19 17:00N 40°38' W 074°08'0 0.0
2017-May-19 16:31N 40°38' W 074°08'0 0.0
2017-May-19 16:00N 40°38' W 074°08'0 0.0
2017-May-19 15:30N 40°38' W 074°08'0 0.0
2017-May-19 15:00N 40°38' W 074°08'0 0.0
2017-May-19 14:00N 40°38' W 074°08'0 0.0
2017-May-19 13:30N 40°38' W 074°08'0 0.0
2017-May-19 13:00N 40°38' W 074°08'0 0.0
2017-May-19 12:30N 40°38' W 074°08'0 0.0
2017-May-19 12:00N 40°38' W 074°08'0 0.0
2017-May-19 11:30N 40°38' W 074°08'0 0.0
2017-May-19 11:00N 40°38' W 074°08'0 0.0
2017-May-19 10:30N 40°38' W 074°08'0 0.0
2017-May-19 10:00N 40°38' W 074°08'0 0.0
2017-May-19 09:31N 40°38' W 074°08'0 0.0
2017-May-19 09:01N 40°38' W 074°08'0 0.0
2017-May-19 08:30N 40°38' W 074°08'0 0.0
2017-May-19 08:00N 40°38' W 074°08'0 0.0
2017-May-19 07:31N 40°38' W 074°08'0 0.0
2017-May-19 07:00N 40°38' W 074°08'0 0.0
2017-May-19 06:30N 40°38' W 074°08'0 0.0
2017-May-19 06:01N 40°38' W 074°08'0 0.0
2017-May-19 05:30N 40°38' W 074°08'0 0.0
2017-May-19 05:00N 40°38' W 074°08'0 0.0
2017-May-19 04:30N 40°38' W 074°08'0 0.0
2017-May-19 04:01N 40°38' W 074°08'0 0.0
2017-May-19 03:31N 40°38' W 074°08'0 0.0
2017-May-19 03:01N 40°38' W 074°08'0 0.0
2017-May-19 02:31N 40°38' W 074°08'0 0.0
2017-May-19 02:00N 40°38' W 074°08'0 0.0
2017-May-19 01:30N 40°38' W 074°08'0 0.0
2017-May-19 01:00N 40°38' W 074°08'0 0.0
2017-May-19 00:30N 40°38' W 074°08'0 0.0
2017-May-19 00:01N 40°38' W 074°08'0 0.0
2017-May-18 23:30N 40°38' W 074°08'0 0.0
2017-May-18 23:00N 40°38' W 074°08'0 0.0
2017-May-18 22:30N 40°38' W 074°08'0 0.0
2017-May-18 22:01N 40°38' W 074°08'0 0.0
2017-May-18 21:31N 40°38' W 074°08'0 0.0
2017-May-18 21:00N 40°38' W 074°08'0 0.0
2017-May-18 20:30N 40°38' W 074°08'0 0.0
2017-May-18 20:00N 40°38' W 074°08'0 0.0
2017-May-18 19:30N 40°38' W 074°08'0 0.0
2017-May-18 19:00N 40°38' W 074°08'0 0.0
2017-May-18 18:30N 40°38' W 074°08'0 0.0
2017-May-18 18:00N 40°38' W 074°08'0 0.0
2017-May-18 17:29N 40°38' W 074°08'0 0.0
2017-May-18 17:00N 40°38' W 074°08'0 0.0
2017-May-18 16:30N 40°38' W 074°08'0 0.0
2017-May-18 16:00N 40°38' W 074°08'0 0.0
2017-May-18 15:31N 40°38' W 074°08'0 0.0
2017-May-18 15:00N 40°38' W 074°08'0 0.0
2017-May-18 13:53N 40°38' W 074°08'0 0.0
2017-May-18 13:31N 40°38' W 074°08'0 0.0
2017-May-18 13:00N 40°38' W 074°08'0 0.0
2017-May-18 12:30N 40°38' W 074°08'0 0.0
2017-May-18 12:00N 40°38' W 074°08'0 0.0
2017-May-18 11:29N 40°38' W 074°08'0 0.0
2017-May-18 11:01N 40°38' W 074°08'0 0.0
2017-May-18 10:30N 40°38' W 074°08'0 0.0
2017-May-18 10:00N 40°38' W 074°08'0 0.0
2017-May-18 09:30N 40°38' W 074°08'0 0.0
2017-May-18 09:00N 40°38' W 074°08'0 0.0
2017-May-18 08:30N 40°38' W 074°08'0 0.0
2017-May-18 08:00N 40°38' W 074°08'0 0.0
2017-May-18 07:30N 40°38' W 074°08'0 0.0
2017-May-18 07:00N 40°38' W 074°08'0 0.0
2017-May-18 06:28N 40°38' W 074°08'0 0.0
2017-May-18 06:01N 40°38' W 074°08'0 0.0
2017-May-18 05:31N 40°38' W 074°08'0 0.0
2017-May-18 04:59N 40°38' W 074°08'0 0.0
2017-May-18 04:31N 40°38' W 074°08'0 0.0
2017-May-18 04:01N 40°38' W 074°08'0 0.0
2017-May-18 03:31N 40°38' W 074°08'0 0.0
2017-May-18 02:54N 40°38' W 074°08'0 0.0
2017-May-18 02:29N 40°38' W 074°08'0 0.0
2017-May-18 02:00N 40°38' W 074°08'0 0.0
2017-May-18 01:30N 40°38' W 074°08'0 0.0
2017-May-18 00:59N 40°38' W 074°08'0 0.0
2017-May-18 00:30N 40°38' W 074°08'0 0.0
2017-May-18 00:00N 40°38' W 074°08'0 0.0
2017-May-17 23:30N 40°38' W 074°08'0 0.0
2017-May-17 23:00N 40°38' W 074°08'0 0.0
2017-May-17 22:30N 40°38' W 074°08'0 0.0
2017-May-17 22:00N 40°38' W 074°08'0 0.0
2017-May-17 21:31N 40°38' W 074°08'0 0.0
2017-May-17 21:00N 40°38' W 074°08'0 0.0
2017-May-17 20:29N 40°38' W 074°08'0 0.0
2017-May-17 20:00N 40°38' W 074°08'0 0.0
2017-May-17 19:30N 40°38' W 074°08'0 0.0
2017-May-17 19:00N 40°38' W 074°08'0 0.0
2017-May-17 18:30N 40°38' W 074°08'0 0.0
2017-May-17 18:00N 40°38' W 074°08'0 0.0
2017-May-17 17:30N 40°38' W 074°08'0 0.0
2017-May-17 17:00N 40°38' W 074°08'0 0.0
2017-May-17 16:30N 40°38' W 074°08'0 0.0
2017-May-17 16:00N 40°38' W 074°08'0 0.0
2017-May-17 15:30N 40°38' W 074°08'0 0.0
2017-May-17 15:00N 40°38' W 074°08'0 0.0
2017-May-17 14:30N 40°38' W 074°08'0 0.0
2017-May-17 13:31N 40°38' W 074°08'0 0.0
2017-May-17 13:00N 40°38' W 074°08'0 0.0
2017-May-17 12:27N 40°38' W 074°08'0 0.0
2017-May-17 12:00N 40°38' W 074°08'0 0.0
2017-May-17 11:29N 40°38' W 074°08'0 0.0
2017-May-17 11:00N 40°38' W 074°08'0 0.0
2017-May-17 10:30N 40°38' W 074°08'0 0.0
2017-May-17 10:00N 40°38' W 074°08'0 0.0
2017-May-17 09:30N 40°38' W 074°08'0 0.0
2017-May-17 09:00N 40°38' W 074°08'0 0.0
2017-May-17 08:30N 40°38' W 074°08'0 0.0
2017-May-17 07:59N 40°38' W 074°08'0 0.0
2017-May-17 07:30N 40°38' W 074°08'0 0.0
2017-May-17 07:00N 40°38' W 074°08'0 0.0
2017-May-17 06:30N 40°38' W 074°08'0 0.0
2017-May-17 06:00N 40°38' W 074°08'0 0.0
2017-May-17 05:30N 40°38' W 074°08'0 0.0
2017-May-17 05:01N 40°38' W 074°08'0 0.0
2017-May-17 04:31N 40°38' W 074°08'0 0.0
2017-May-17 04:00N 40°38' W 074°08'0 0.0
2017-May-17 03:30N 40°38' W 074°08'0 0.0
2017-May-17 03:00N 40°38' W 074°08'0 0.0
2017-May-17 02:30N 40°38' W 074°08'0 0.0
2017-May-17 02:01N 40°38' W 074°08'0 0.0
2017-May-17 01:29N 40°38' W 074°08'0 0.0
2017-May-17 01:00N 40°38' W 074°08'0 0.0
2017-May-17 00:30N 40°38' W 074°08'0 0.0
2017-May-17 00:01N 40°38' W 074°08'0 0.0
2017-May-16 23:30N 40°38' W 074°08'0 0.0
2017-May-16 23:00N 40°38' W 074°08'0 0.0
2017-May-16 22:30N 40°38' W 074°08'0 0.0
2017-May-16 22:00N 40°38' W 074°08'0 0.0
2017-May-16 21:30N 40°38' W 074°08'0 0.0
2017-May-16 21:00N 40°38' W 074°08'0 0.0
2017-May-16 20:30N 40°38' W 074°08'0 0.0
2017-May-16 20:00N 40°38' W 074°08'0 0.0
2017-May-16 19:29N 40°38' W 074°08'0 0.0
2017-May-16 19:00N 40°38' W 074°08'0 0.0
2017-May-16 18:30N 40°38' W 074°08'0 0.0
2017-May-16 18:00N 40°38' W 074°08'0 0.0
2017-May-16 17:30N 40°38' W 074°08'0 0.0
2017-May-16 17:00N 40°38' W 074°08'0 0.0
2017-May-16 16:30N 40°38' W 074°08'0 0.0
2017-May-16 16:00N 40°38' W 074°08'0 0.0
2017-May-16 15:30N 40°38' W 074°08'0 0.0
2017-May-16 15:00N 40°38' W 074°08'0 0.0
2017-May-16 14:26N 40°38' W 074°08'0 0.0
2017-May-16 13:31N 40°38' W 074°08'0 0.0
2017-May-16 13:01N 40°38' W 074°08'0 0.0
2017-May-16 12:30N 40°38' W 074°08'0 0.0
2017-May-16 12:00N 40°38' W 074°08'0 0.0
2017-May-16 11:30N 40°38' W 074°08'  

Dump ship's entire track history